Norwegian Jewel — C6TX6 — position and weather

sailwx.info

Track history (hours):
 
Tides and Currents Weather Stations Pressure Air Temp Water Temp Dewpoint Dewpoint Depression Visibility Wind Speed Wind Dir Waves Ship Positions

Norwegian Jewel

Last reported at 2019-Oct-23 13:00 UTC. Time now 2019-Oct-23 20:53 UTC.
Position N 42°06' W 133°06'.

Type: Passenger vessel. MMSI: 311827000.

Wind from 310 at 25 knots

Barometer 1035.0 mb
Air temperature 14.0 ° C
Visibility: greater than 2.2 NM
Water temperature 19.0 ° C

Date/timePositionNaut miles runAvg speedWind from/ knotsBaromVisibWave heightAir tempDewpointWater temp
2019-Oct-23 13:00N 42°06' W 133°06'20917.4 310 / 251035.0 2.2 14.0 19.0
2019-Oct-23 01:00N 44°42' W 129°54'9115.2 280 / 51035.110.8 14.0 16.0
2019-Oct-22 19:00N 45°48' W 128°24'18620.7 050 / 101038.010.8 14.0
2019-Oct-22 10:02N 48°10' W 125°28'120.3
2019-Oct-22 09:58N 48°11' W 125°27'920.2
2019-Oct-22 09:30N 48°18' W 125°18'1019.9
2019-Oct-22 09:00N 48°25' W 125°08'918.8
2019-Oct-22 08:30N 48°31' W 124°56'917.6
2019-Oct-22 08:00N 48°31' W 124°43'1020.4
2019-Oct-22 07:30N 48°26' W 124°29'1020.8
2019-Oct-22 07:00N 48°22' W 124°14'1121.0
2019-Oct-22 06:30N 48°18' W 123°60'1121.5
2019-Oct-22 06:00N 48°16' W 123°44'1019.6
2019-Oct-22 05:30N 48°17' W 123°29'815.5
2019-Oct-22 05:00N 48°23' W 123°22'713.8
2019-Oct-22 04:30N 48°25' W 123°12'815.8
2019-Oct-22 04:00N 48°33' W 123°13'815.9
2019-Oct-22 03:30N 48°41' W 123°16'713.5
2019-Oct-22 03:00N 48°45' W 123°08'612.3
2019-Oct-22 02:30N 48°50' W 123°02'816.5
2019-Oct-22 02:00N 48°55' W 123°11'816.7
2019-Oct-22 01:30N 49°01' W 123°21'816.4
2019-Oct-22 01:00N 49°09' W 123°23'918.2
2019-Oct-22 00:30N 49°17' W 123°19'714.8
2019-Oct-22 00:00N 49°19' W 123°08'2 3.6
2019-Oct-21 23:30N 49°17' W 123°07'0 0.0
2019-Oct-21 23:00N 49°17' W 123°07'0 0.0
2019-Oct-21 22:30N 49°17' W 123°07'0 0.0
2019-Oct-21 22:00N 49°17' W 123°07'0 0.0
2019-Oct-21 21:30N 49°17' W 123°07'0 0.0
2019-Oct-21 21:00N 49°17' W 123°07'0 0.0
2019-Oct-21 20:30N 49°17' W 123°07'0 0.0
2019-Oct-21 20:00N 49°17' W 123°07'0 0.0
2019-Oct-21 19:30N 49°17' W 123°07'0 0.0
2019-Oct-21 19:00N 49°17' W 123°07'0 0.0
2019-Oct-21 18:30N 49°17' W 123°07'0 0.0
2019-Oct-21 18:00N 49°17' W 123°07'0 0.0
2019-Oct-21 17:30N 49°17' W 123°07'0 0.0
2019-Oct-21 17:00N 49°17' W 123°07'0 0.0
2019-Oct-21 16:30N 49°17' W 123°07'0 0.0
2019-Oct-21 16:00N 49°17' W 123°07'0 0.0
2019-Oct-21 15:30N 49°17' W 123°07'0 0.0
2019-Oct-21 15:00N 49°17' W 123°07'0 0.0
2019-Oct-21 14:30N 49°17' W 123°07'0 0.0
2019-Oct-21 14:00N 49°17' W 123°07'0 0.0
2019-Oct-21 13:30N 49°17' W 123°07'2 3.5
2019-Oct-21 13:01N 49°19' W 123°08'510.7
2019-Oct-21 12:30N 49°18' W 123°16'612.8
2019-Oct-21 12:01N 49°12' W 123°20'713.1
2019-Oct-21 11:30N 49°06' W 123°21'612.6
2019-Oct-21 11:01N 49°01' W 123°15'713.3
2019-Oct-21 10:31N 48°56' W 123°08'713.5
2019-Oct-21 10:00N 48°51' W 123°01'5331.2
2019-Oct-21 10:00N 48°48' W 122°54'612.7 180 / 101024.0 5.4 13.0
2019-Oct-21 09:30N 48°46' W 123°03'713.5
2019-Oct-21 09:00N 48°43' W 123°12'611.5
2019-Oct-21 08:30N 48°37' W 123°14'713.6
2019-Oct-21 08:00N 48°30' W 123°11'612.9
2019-Oct-21 07:30N 48°24' W 123°12'713.3
2019-Oct-21 07:00N 48°22' W 123°22'713.2
2019-Oct-21 06:30N 48°16' W 123°26'815.3
2019-Oct-21 06:00N 48°13' W 123°37'917.1
2019-Oct-21 05:30N 48°13' W 123°50'918.1
2019-Oct-21 05:00N 48°16' W 124°03'1019.2
2019-Oct-21 04:31N 48°20' W 124°16'1019.6
2019-Oct-21 04:00N 48°24' W 124°29'1020.6
2019-Oct-21 03:30N 48°28' W 124°44'1120.4
2019-Oct-21 03:00N 48°28' W 124°60'1020.6
2019-Oct-21 02:31N 48°19' W 125°07'1120.6
2019-Oct-21 01:59N 48°09' W 125°13'1120.0
2019-Oct-21 01:26N 47°59' W 125°20'1125.5
2019-Oct-21 01:00N 47°48' W 125°18'11419.0 270 / 281017.0 5.4 14.0 12.0
2019-Oct-20 19:00N 45°54' W 125°18'44021.3 270 / 201017.0 5.4 13.0
2019-Oct-19 22:19N 38°35' W 124°29'1237.9
2019-Oct-19 22:00N 38°24' W 124°24'2 8.3 350 / 171023.010.8 15.0
2019-Oct-19 21:48N 38°26' W 124°24'621.0
2019-Oct-19 21:30N 38°20' W 124°22'1020.8
2019-Oct-19 21:00N 38°10' W 124°17'1120.7
2019-Oct-19 20:29N 37°60' W 124°12'1020.8
2019-Oct-19 20:00N 37°51' W 124°07'17919.7
2019-Oct-19 10:55N 35°27' W 121°54'11218.3
2019-Oct-19 04:50N 34°16' W 120°09'720.5
2019-Oct-19 04:31N 34°15' W 120°01'1020.6
2019-Oct-19 04:01N 34°12' W 119°49'1020.4
2019-Oct-19 03:30N 34°09' W 119°38'1020.0
2019-Oct-19 03:01N 34°07' W 119°26'1919.9
2019-Oct-19 02:03N 33°59' W 119°05'120.9
2019-Oct-19 01:59N 33°58' W 119°04'1020.6
2019-Oct-19 01:30N 33°54' W 118°53'1020.3
2019-Oct-19 01:01N 33°49' W 118°42'1020.8
2019-Oct-19 00:30N 33°44' W 118°32'1020.6
2019-Oct-19 00:00N 33°39' W 118°21'611.0
2019-Oct-18 23:30N 33°41' W 118°15'4 7.1
2019-Oct-18 23:00N 33°44' W 118°17'0 0.3
2019-Oct-18 22:29N 33°45' W 118°17'0 0.0
2019-Oct-18 21:59N 33°45' W 118°17'0 0.0
2019-Oct-18 21:29N 33°45' W 118°17'0 0.0
2019-Oct-18 20:59N 33°45' W 118°17'0 0.0
2019-Oct-18 20:29N 33°45' W 118°17'0 0.0
2019-Oct-18 19:59N 33°45' W 118°17'0 0.0
2019-Oct-18 19:29N 33°45' W 118°17'0 0.0
2019-Oct-18 18:59N 33°45' W 118°17'0 0.0
2019-Oct-18 18:29N 33°45' W 118°17'0 0.0
2019-Oct-18 17:59N 33°45' W 118°17'0 0.0
2019-Oct-18 17:26N 33°45' W 118°17'0 0.0
2019-Oct-18 16:59N 33°45' W 118°17'0 0.0
2019-Oct-18 16:29N 33°45' W 118°17'0 0.0
2019-Oct-18 15:59N 33°45' W 118°17'0 0.0
2019-Oct-18 15:29N 33°45' W 118°17'0 0.0
2019-Oct-18 14:53N 33°45' W 118°17'0 0.0
2019-Oct-18 14:29N 33°45' W 118°17'0 0.0
2019-Oct-18 13:59N 33°45' W 118°17'0 0.3
2019-Oct-18 13:30N 33°45' W 118°17'2 3.2
2019-Oct-18 13:00N 33°43' W 118°16'4 7.4
2019-Oct-18 12:30N 33°40' W 118°13'4 7.8
2019-Oct-18 12:00N 33°37' W 118°10'5 9.6
2019-Oct-18 11:30N 33°33' W 118°08'5 9.9
2019-Oct-18 11:00N 33°28' W 118°06'510.3
2019-Oct-18 10:30N 33°23' W 118°04'612.5
2019-Oct-18 10:00N 33°18' W 118°01'612.2
2019-Oct-18 09:30N 33°12' W 117°58'511.0
2019-Oct-18 09:00N 33°07' W 117°56'510.9
2019-Oct-18 08:30N 33°02' W 117°54'611.5
2019-Oct-18 08:00N 32°56' W 117°52'611.3
2019-Oct-18 07:30N 32°51' W 117°50'611.5
2019-Oct-18 07:01N 32°45' W 117°48'611.4
2019-Oct-18 06:30N 32°40' W 117°46'713.9
2019-Oct-18 06:00N 32°33' W 117°44'815.5
2019-Oct-18 05:30N 32°26' W 117°41'612.1
2019-Oct-18 05:01N 32°20' W 117°39'611.9
2019-Oct-18 04:31N 32°14' W 117°36'612.1
2019-Oct-18 04:00N 32°09' W 117°34'812.1
2019-Oct-18 03:19N 32°02' W 117°28'6 4.7
2019-Oct-18 01:59N 31°59' W 117°35'511.0
2019-Oct-18 01:30N 32°02' W 117°41'4 8.8
2019-Oct-18 01:00N 32°01' W 117°46'611.5
2019-Oct-18 00:30N 31°57' W 117°42'713.9
2019-Oct-18 00:00N 31°50' W 117°40'5 9.3
2019-Oct-17 23:30N 31°46' W 117°43'510.7
2019-Oct-17 23:00N 31°48' W 117°48'510.5
2019-Oct-17 22:30N 31°50' W 117°54'5 9.8
2019-Oct-17 22:00N 31°53' W 117°59'4 8.8
2019-Oct-17 21:30N 31°52' W 118°04'3 6.8
2019-Oct-17 21:00N 31°49' W 118°02'5 9.1
2019-Oct-17 20:31N 31°50' W 117°56'5 9.2
2019-Oct-17 20:00N 31°49' W 117°51'5 9.2
2019-Oct-17 19:30N 31°49' W 117°46'5 9.4
2019-Oct-17 19:01N 31°49' W 117°40'5 9.2
2019-Oct-17 18:30N 31°49' W 117°35'5 9.4
2019-Oct-17 18:00N 31°48' W 117°29'5 9.6
2019-Oct-17 17:30N 31°48' W 117°23'5 9.4
2019-Oct-17 16:58N 31°48' W 117°18'4 7.9
2019-Oct-17 16:29N 31°46' W 117°14'4 9.2
2019-Oct-17 16:00N 31°42' W 117°15'5 9.8
2019-Oct-17 15:30N 31°41' W 117°20'5 9.9
2019-Oct-17 15:00N 31°40' W 117°26'5 9.7
2019-Oct-17 14:30N 31°40' W 117°32'5 9.6
2019-Oct-17 14:00N 31°40' W 117°37'5 9.5
2019-Oct-17 13:30N 31°40' W 117°43'5 9.8
2019-Oct-17 13:00N 31°40' W 117°49'5 9.7
2019-Oct-17 12:30N 31°40' W 117°55'5 9.8
2019-Oct-17 12:00N 31°40' W 118°00'5 9.8
2019-Oct-17 11:30N 31°39' W 118°06'5 9.9
2019-Oct-17 11:00N 31°39' W 118°12'5 9.4
2019-Oct-17 10:30N 31°35' W 118°13'5 9.2
2019-Oct-17 10:00N 31°30' W 118°12'5 9.6
2019-Oct-17 09:30N 31°30' W 118°07'510.0
2019-Oct-17 09:00N 31°30' W 118°01'510.0
2019-Oct-17 08:30N 31°30' W 117°55'5 9.7
2019-Oct-17 08:00N 31°30' W 117°49'5 9.7
2019-Oct-17 07:30N 31°30' W 117°43'5 9.6
2019-Oct-17 07:00N 31°30' W 117°38'5 9.4
2019-Oct-17 06:30N 31°30' W 117°32'5 9.4
2019-Oct-17 06:00N 31°30' W 117°27'5 9.6
2019-Oct-17 05:30N 31°30' W 117°21'5 9.6
2019-Oct-17 05:00N 31°30' W 117°15'5 9.6
2019-Oct-17 04:30N 31°30' W 117°10'5 9.6
2019-Oct-17 04:00N 31°30' W 117°04'510.0
2019-Oct-17 03:30N 31°34' W 116°60'810.3
2019-Oct-17 02:42N 31°40' W 116°53'210.1
2019-Oct-17 02:30N 31°41' W 116°52'610.0
2019-Oct-17 01:54N 31°46' W 116°47'5 0.3
2019-Oct-16 12:39N 31°48' W 116°42'211.7
2019-Oct-16 12:30N 31°47' W 116°44'612.3
2019-Oct-16 12:01N 31°45' W 116°51'612.1
2019-Oct-16 11:31N 31°43' W 116°58'611.9
2019-Oct-16 11:00N 31°42' W 117°05'510.8
2019-Oct-16 10:31N 31°38' W 117°09'510.7
2019-Oct-16 10:00N 31°35' W 117°14'510.5
2019-Oct-16 09:30N 31°32' W 117°19'510.2
2019-Oct-16 09:00N 31°29' W 117°24'5 9.8
2019-Oct-16 08:30N 31°27' W 117°29'4 7.8
2019-Oct-16 08:01N 31°27' W 117°34'5 9.0
2019-Oct-16 07:30N 31°31' W 117°36'4 8.9
2019-Oct-16 07:00N 31°35' W 117°39'5 9.0
2019-Oct-16 06:30N 31°39' W 117°41'3 5.8
2019-Oct-16 06:01N 31°41' W 117°44'4 8.6
2019-Oct-16 05:30N 31°37' W 117°43'4 8.7
2019-Oct-16 05:00N 31°32' W 117°43'4 8.6
2019-Oct-16 04:30N 31°28' W 117°41'4 7.1
2019-Oct-16 04:01N 31°31' W 117°38'4 8.8
2019-Oct-16 03:30N 31°35' W 117°39'4 8.6
2019-Oct-16 03:01N 31°39' W 117°40'4 8.6
2019-Oct-16 02:31N 31°44' W 117°40'4 8.6
2019-Oct-16 01:59N 31°48' W 117°41'4 7.6
2019-Oct-16 01:30N 31°49' W 117°37'4 8.2
2019-Oct-16 01:00N 31°48' W 117°32'4 8.0
2019-Oct-16 00:31N 31°47' W 117°27'5 7.8
2019-Oct-15 23:53N 31°46' W 117°22'12 7.8
2019-Oct-15 22:21N 31°58' W 117°19'3 8.0
2019-Oct-15 22:01N 32°00' W 117°21'7414.4
2019-Oct-15 22:00N 31°54' W 117°18'1019.0 300 / 101019.010.8 21.0
2019-Oct-15 21:29N 32°01' W 117°26'4 8.3
2019-Oct-15 21:01N 32°00' W 117°31'4 8.2
2019-Oct-15 20:30N 32°00' W 117°36'4 8.2
2019-Oct-15 20:00N 31°60' W 117°41'4 8.0
2019-Oct-15 19:30N 31°59' W 117°45'4 8.1
2019-Oct-15 19:01N 31°59' W 117°50'4 8.2
2019-Oct-15 18:30N 31°58' W 117°55'4 7.9
2019-Oct-15 18:00N 31°59' W 117°59'4 7.8
2019-Oct-15 17:26N 32°03' W 118°01'4 7.6
2019-Oct-15 16:52N 32°08' W 117°59'3 7.5
2019-Oct-15 16:30N 32°08' W 117°56'4 8.0
2019-Oct-15 16:00N 32°08' W 117°51'4 7.7
2019-Oct-15 15:28N 32°08' W 117°47'4 7.8
2019-Oct-15 15:00N 32°08' W 117°42'4 8.0
2019-Oct-15 14:27N 32°08' W 117°37'4 7.8
2019-Oct-15 13:59N 32°08' W 117°33'4 7.8
2019-Oct-15 13:31N 32°08' W 117°28'4 7.8
2019-Oct-15 12:57N 32°08' W 117°23'3 7.2
2019-Oct-15 12:29N 32°09' W 117°19'4 7.7
2019-Oct-15 12:00N 32°12' W 117°19'4 8.1
2019-Oct-15 11:30N 32°16' W 117°20'4 8.0
2019-Oct-15 11:01N 32°20' W 117°20'4 8.1
2019-Oct-15 10:30N 32°24' W 117°21'4 7.9
2019-Oct-15 10:00N 32°28' W 117°21'4 8.0
2019-Oct-15 09:31N 32°32' W 117°19'4 8.1
2019-Oct-15 09:00N 32°35' W 117°16'4 8.0
2019-Oct-15 08:31N 32°38' W 117°14'5 9.2
2019-Oct-15 08:00N 32°43' W 117°13'2 4.1
2019-Oct-15 07:29N 32°43' W 117°10'0 0.0
2019-Oct-15 06:59N 32°43' W 117°10'0 0.0
2019-Oct-15 06:29N 32°43' W 117°10'0 0.0
2019-Oct-15 05:59N 32°43' W 117°10'0 0.0
2019-Oct-15 05:29N 32°43' W 117°10'0 0.0
2019-Oct-15 04:59N 32°43' W 117°10'0 0.0
2019-Oct-15 04:29N 32°43' W 117°10'0 0.0
2019-Oct-15 03:59N 32°43' W 117°10'0 0.0
2019-Oct-15 03:29N 32°43' W 117°10'0 0.0
2019-Oct-15 02:59N 32°43' W 117°10'0 0.0
2019-Oct-15 02:29N 32°43' W 117°10'0 0.0
2019-Oct-15 01:59N 32°43' W 117°10'0 0.0
2019-Oct-15 01:29N 32°43' W 117°10'0 0.0
2019-Oct-15 00:59N 32°43' W 117°10'0 0.0
2019-Oct-15 00:29N 32°43' W 117°10'0 0.0
2019-Oct-14 23:59N 32°43' W 117°10'0 0.0
2019-Oct-14 23:29N 32°43' W 117°10'0 0.0
2019-Oct-14 22:59N 32°43' W 117°10'0 0.0
2019-Oct-14 22:29N 32°43' W 117°10'0 0.0
2019-Oct-14 21:59N 32°43' W 117°10'0 0.0
2019-Oct-14 21:29N 32°43' W 117°10'0 0.0
2019-Oct-14 20:59N 32°43' W 117°10'0 0.0
2019-Oct-14 20:29N 32°43' W 117°10'0 0.0
2019-Oct-14 19:59N 32°43' W 117°10'0 0.0
2019-Oct-14 19:29N 32°43' W 117°10'0 0.0
2019-Oct-14 18:59N 32°43' W 117°10'0 0.0
2019-Oct-14 18:29N 32°43' W 117°10'0 0.0
2019-Oct-14 17:59N 32°43' W 117°10'0 0.0
2019-Oct-14 17:29N 32°43' W 117°10'0 0.0
2019-Oct-14 16:59N 32°43' W 117°10'0 0.0
2019-Oct-14 16:29N 32°43' W 117°10'0 0.0
2019-Oct-14 15:59N 32°43' W 117°10'0 0.0
2019-Oct-14 15:29N 32°43' W 117°10'0 0.0
2019-Oct-14 14:59N 32°43' W 117°10'0 0.0
2019-Oct-14 14:29N 32°43' W 117°10'0 0.0
2019-Oct-14 14:00N 32°43' W 117°10'2 4.5
2019-Oct-14 13:30N 32°43' W 117°13'510.3
2019-Oct-14 13:00N 32°38' W 117°14'5 9.0
2019-Oct-14 12:30N 32°34' W 117°17'510.7
2019-Oct-14 12:00N 32°36' W 117°23'510.6
2019-Oct-14 11:30N 32°38' W 117°29'510.2
2019-Oct-14 11:00N 32°39' W 117°35'510.2
2019-Oct-14 10:30N 32°39' W 117°41'510.4
2019-Oct-14 10:00N 32°41' W 117°47'6379.3
2019-Oct-14 10:00N 32°36' W 117°42'1122.1 200 / 71017.010.8 17.0
2019-Oct-14 09:30N 32°44' W 117°51'5 9.9
2019-Oct-14 09:00N 32°48' W 117°53'510.2
2019-Oct-14 08:30N 32°53' W 117°54'5 9.2
2019-Oct-14 08:00N 32°57' W 117°57'510.1
2019-Oct-14 07:30N 33°02' W 117°59'510.1
2019-Oct-14 07:00N 33°07' W 118°01'510.0
2019-Oct-14 06:30N 33°11' W 118°03'510.4
2019-Oct-14 06:00N 33°16' W 118°05'510.2
2019-Oct-14 05:30N 33°21' W 118°07'510.3
2019-Oct-14 05:00N 33°26' W 118°09'510.1
2019-Oct-14 04:30N 33°31' W 118°11'510.1
2019-Oct-14 04:00N 33°35' W 118°13'510.3
2019-Oct-14 03:30N 33°40' W 118°14'4 8.2
2019-Oct-14 03:00N 33°44' W 118°17'1 1.6
2019-Oct-14 02:28N 33°45' W 118°17'0 0.0
2019-Oct-14 01:58N 33°45' W 118°17'0 0.0
2019-Oct-14 01:28N 33°45' W 118°17'0 0.0
2019-Oct-14 00:58N 33°45' W 118°17'0 0.0
2019-Oct-14 00:28N 33°45' W 118°17'0 0.0
2019-Oct-13 23:58N 33°45' W 118°17'0 0.0
2019-Oct-13 23:28N 33°45' W 118°17'0 0.0
2019-Oct-13 22:58N 33°45' W 118°17'0 0.0
2019-Oct-13 22:28N 33°45' W 118°17'0 0.0
2019-Oct-13 21:58N 33°45' W 118°17'0 0.0
2019-Oct-13 21:28N 33°45' W 118°17'0 0.0
2019-Oct-13 20:58N 33°45' W 118°17'0 0.0
2019-Oct-13 20:28N 33°45' W 118°17'0 0.0
2019-Oct-13 19:58N 33°45' W 118°17'0 0.0
2019-Oct-13 19:28N 33°45' W 118°17'0 0.0
2019-Oct-13 18:58N 33°45' W 118°17'0 0.0
2019-Oct-13 18:28N 33°45' W 118°17'0 0.0
2019-Oct-13 17:58N 33°45' W 118°17'0 0.0
2019-Oct-13 17:28N 33°45' W 118°17'0 0.0
2019-Oct-13 16:58N 33°45' W 118°17'0 0.0
2019-Oct-13 16:28N 33°45' W 118°17'0 0.0
2019-Oct-13 15:58N 33°45' W 118°17'0 0.0
2019-Oct-13 15:28N 33°45' W 118°17'0 0.0
2019-Oct-13 14:58N 33°45' W 118°17'0 0.0
2019-Oct-13 14:28N 33°45' W 118°17'0 0.0
2019-Oct-13 13:58N 33°45' W 118°17'0 0.4
2019-Oct-13 13:30N 33°45' W 118°16'2 4.6
2019-Oct-13 13:00N 33°43' W 118°15'  
Track history (hours):
 
Tides and Currents Weather Stations Pressure Air Temp Water Temp Dewpoint Dewpoint Depression Visibility Wind Speed Wind Dir Waves Ship Positions

Norwegian Jewel

Last reported at 2019-Oct-23 13:00 UTC. Time now 2019-Oct-23 20:53 UTC.
Position N 42°06' W 133°06'.

Type: Passenger vessel. MMSI: 311827000.

Wind from 310 at 25 knots

Barometer 1035.0 mb
Air temperature 14.0 ° C
Visibility: greater than 2.2 NM
Water temperature 19.0 ° C

Date/timePositionNaut miles runAvg speedWind from/ knotsBaromVisibWave heightAir tempDewpointWater temp
2019-Oct-23 13:00N 42°06' W 133°06'20917.4 310 / 251035.0 2.2 14.0 19.0
2019-Oct-23 01:00N 44°42' W 129°54'9115.2 280 / 51035.110.8 14.0 16.0
2019-Oct-22 19:00N 45°48' W 128°24'18620.7 050 / 101038.010.8 14.0
2019-Oct-22 10:02N 48°10' W 125°28'120.3
2019-Oct-22 09:58N 48°11' W 125°27'920.2
2019-Oct-22 09:30N 48°18' W 125°18'1019.9
2019-Oct-22 09:00N 48°25' W 125°08'918.8
2019-Oct-22 08:30N 48°31' W 124°56'917.6
2019-Oct-22 08:00N 48°31' W 124°43'1020.4
2019-Oct-22 07:30N 48°26' W 124°29'1020.8
2019-Oct-22 07:00N 48°22' W 124°14'1121.0
2019-Oct-22 06:30N 48°18' W 123°60'1121.5
2019-Oct-22 06:00N 48°16' W 123°44'1019.6
2019-Oct-22 05:30N 48°17' W 123°29'815.5
2019-Oct-22 05:00N 48°23' W 123°22'713.8
2019-Oct-22 04:30N 48°25' W 123°12'815.8
2019-Oct-22 04:00N 48°33' W 123°13'815.9
2019-Oct-22 03:30N 48°41' W 123°16'713.5
2019-Oct-22 03:00N 48°45' W 123°08'612.3
2019-Oct-22 02:30N 48°50' W 123°02'816.5
2019-Oct-22 02:00N 48°55' W 123°11'816.7
2019-Oct-22 01:30N 49°01' W 123°21'816.4
2019-Oct-22 01:00N 49°09' W 123°23'918.2
2019-Oct-22 00:30N 49°17' W 123°19'714.8
2019-Oct-22 00:00N 49°19' W 123°08'2 3.6
2019-Oct-21 23:30N 49°17' W 123°07'0 0.0
2019-Oct-21 23:00N 49°17' W 123°07'0 0.0
2019-Oct-21 22:30N 49°17' W 123°07'0 0.0
2019-Oct-21 22:00N 49°17' W 123°07'0 0.0
2019-Oct-21 21:30N 49°17' W 123°07'0 0.0
2019-Oct-21 21:00N 49°17' W 123°07'0 0.0
2019-Oct-21 20:30N 49°17' W 123°07'0 0.0
2019-Oct-21 20:00N 49°17' W 123°07'0 0.0
2019-Oct-21 19:30N 49°17' W 123°07'0 0.0
2019-Oct-21 19:00N 49°17' W 123°07'0 0.0
2019-Oct-21 18:30N 49°17' W 123°07'0 0.0
2019-Oct-21 18:00N 49°17' W 123°07'0 0.0
2019-Oct-21 17:30N 49°17' W 123°07'0 0.0
2019-Oct-21 17:00N 49°17' W 123°07'0 0.0
2019-Oct-21 16:30N 49°17' W 123°07'0 0.0
2019-Oct-21 16:00N 49°17' W 123°07'0 0.0
2019-Oct-21 15:30N 49°17' W 123°07'0 0.0
2019-Oct-21 15:00N 49°17' W 123°07'0 0.0
2019-Oct-21 14:30N 49°17' W 123°07'0 0.0
2019-Oct-21 14:00N 49°17' W 123°07'0 0.0
2019-Oct-21 13:30N 49°17' W 123°07'2 3.5
2019-Oct-21 13:01N 49°19' W 123°08'510.7
2019-Oct-21 12:30N 49°18' W 123°16'612.8
2019-Oct-21 12:01N 49°12' W 123°20'713.1
2019-Oct-21 11:30N 49°06' W 123°21'612.6
2019-Oct-21 11:01N 49°01' W 123°15'713.3
2019-Oct-21 10:31N 48°56' W 123°08'713.5
2019-Oct-21 10:00N 48°51' W 123°01'5331.2
2019-Oct-21 10:00N 48°48' W 122°54'612.7 180 / 101024.0 5.4 13.0
2019-Oct-21 09:30N 48°46' W 123°03'713.5
2019-Oct-21 09:00N 48°43' W 123°12'611.5
2019-Oct-21 08:30N 48°37' W 123°14'713.6
2019-Oct-21 08:00N 48°30' W 123°11'612.9
2019-Oct-21 07:30N 48°24' W 123°12'713.3
2019-Oct-21 07:00N 48°22' W 123°22'713.2
2019-Oct-21 06:30N 48°16' W 123°26'815.3
2019-Oct-21 06:00N 48°13' W 123°37'917.1
2019-Oct-21 05:30N 48°13' W 123°50'918.1
2019-Oct-21 05:00N 48°16' W 124°03'1019.2
2019-Oct-21 04:31N 48°20' W 124°16'1019.6
2019-Oct-21 04:00N 48°24' W 124°29'1020.6
2019-Oct-21 03:30N 48°28' W 124°44'1120.4
2019-Oct-21 03:00N 48°28' W 124°60'1020.6
2019-Oct-21 02:31N 48°19' W 125°07'1120.6
2019-Oct-21 01:59N 48°09' W 125°13'1120.0
2019-Oct-21 01:26N 47°59' W 125°20'1125.5
2019-Oct-21 01:00N 47°48' W 125°18'11419.0 270 / 281017.0 5.4 14.0 12.0
2019-Oct-20 19:00N 45°54' W 125°18'44021.3 270 / 201017.0 5.4 13.0
2019-Oct-19 22:19N 38°35' W 124°29'1237.9
2019-Oct-19 22:00N 38°24' W 124°24'2 8.3 350 / 171023.010.8 15.0
2019-Oct-19 21:48N 38°26' W 124°24'621.0
2019-Oct-19 21:30N 38°20' W 124°22'1020.8
2019-Oct-19 21:00N 38°10' W 124°17'1120.7
2019-Oct-19 20:29N 37°60' W 124°12'1020.8
2019-Oct-19 20:00N 37°51' W 124°07'17919.7
2019-Oct-19 10:55N 35°27' W 121°54'11218.3
2019-Oct-19 04:50N 34°16' W 120°09'720.5
2019-Oct-19 04:31N 34°15' W 120°01'1020.6
2019-Oct-19 04:01N 34°12' W 119°49'1020.4
2019-Oct-19 03:30N 34°09' W 119°38'1020.0
2019-Oct-19 03:01N 34°07' W 119°26'1919.9
2019-Oct-19 02:03N 33°59' W 119°05'120.9
2019-Oct-19 01:59N 33°58' W 119°04'1020.6
2019-Oct-19 01:30N 33°54' W 118°53'1020.3
2019-Oct-19 01:01N 33°49' W 118°42'1020.8
2019-Oct-19 00:30N 33°44' W 118°32'1020.6
2019-Oct-19 00:00N 33°39' W 118°21'611.0
2019-Oct-18 23:30N 33°41' W 118°15'4 7.1
2019-Oct-18 23:00N 33°44' W 118°17'0 0.3
2019-Oct-18 22:29N 33°45' W 118°17'0 0.0
2019-Oct-18 21:59N 33°45' W 118°17'0 0.0
2019-Oct-18 21:29N 33°45' W 118°17'0 0.0
2019-Oct-18 20:59N 33°45' W 118°17'0 0.0
2019-Oct-18 20:29N 33°45' W 118°17'0 0.0
2019-Oct-18 19:59N 33°45' W 118°17'0 0.0
2019-Oct-18 19:29N 33°45' W 118°17'0 0.0
2019-Oct-18 18:59N 33°45' W 118°17'0 0.0
2019-Oct-18 18:29N 33°45' W 118°17'0 0.0
2019-Oct-18 17:59N 33°45' W 118°17'0 0.0
2019-Oct-18 17:26N 33°45' W 118°17'0 0.0
2019-Oct-18 16:59N 33°45' W 118°17'0 0.0
2019-Oct-18 16:29N 33°45' W 118°17'0 0.0
2019-Oct-18 15:59N 33°45' W 118°17'0 0.0
2019-Oct-18 15:29N 33°45' W 118°17'0 0.0
2019-Oct-18 14:53N 33°45' W 118°17'0 0.0
2019-Oct-18 14:29N 33°45' W 118°17'0 0.0
2019-Oct-18 13:59N 33°45' W 118°17'0 0.3
2019-Oct-18 13:30N 33°45' W 118°17'2 3.2
2019-Oct-18 13:00N 33°43' W 118°16'4 7.4
2019-Oct-18 12:30N 33°40' W 118°13'4 7.8
2019-Oct-18 12:00N 33°37' W 118°10'5 9.6
2019-Oct-18 11:30N 33°33' W 118°08'5 9.9
2019-Oct-18 11:00N 33°28' W 118°06'510.3
2019-Oct-18 10:30N 33°23' W 118°04'612.5
2019-Oct-18 10:00N 33°18' W 118°01'612.2
2019-Oct-18 09:30N 33°12' W 117°58'511.0
2019-Oct-18 09:00N 33°07' W 117°56'510.9
2019-Oct-18 08:30N 33°02' W 117°54'611.5
2019-Oct-18 08:00N 32°56' W 117°52'611.3
2019-Oct-18 07:30N 32°51' W 117°50'611.5
2019-Oct-18 07:01N 32°45' W 117°48'611.4
2019-Oct-18 06:30N 32°40' W 117°46'713.9
2019-Oct-18 06:00N 32°33' W 117°44'815.5
2019-Oct-18 05:30N 32°26' W 117°41'612.1
2019-Oct-18 05:01N 32°20' W 117°39'611.9
2019-Oct-18 04:31N 32°14' W 117°36'612.1
2019-Oct-18 04:00N 32°09' W 117°34'812.1
2019-Oct-18 03:19N 32°02' W 117°28'6 4.7
2019-Oct-18 01:59N 31°59' W 117°35'511.0
2019-Oct-18 01:30N 32°02' W 117°41'4 8.8
2019-Oct-18 01:00N 32°01' W 117°46'611.5
2019-Oct-18 00:30N 31°57' W 117°42'713.9
2019-Oct-18 00:00N 31°50' W 117°40'5 9.3
2019-Oct-17 23:30N 31°46' W 117°43'510.7
2019-Oct-17 23:00N 31°48' W 117°48'510.5
2019-Oct-17 22:30N 31°50' W 117°54'5 9.8
2019-Oct-17 22:00N 31°53' W 117°59'4 8.8
2019-Oct-17 21:30N 31°52' W 118°04'3 6.8
2019-Oct-17 21:00N 31°49' W 118°02'5 9.1
2019-Oct-17 20:31N 31°50' W 117°56'5 9.2
2019-Oct-17 20:00N 31°49' W 117°51'5 9.2
2019-Oct-17 19:30N 31°49' W 117°46'5 9.4
2019-Oct-17 19:01N 31°49' W 117°40'5 9.2
2019-Oct-17 18:30N 31°49' W 117°35'5 9.4
2019-Oct-17 18:00N 31°48' W 117°29'5 9.6
2019-Oct-17 17:30N 31°48' W 117°23'5 9.4
2019-Oct-17 16:58N 31°48' W 117°18'4 7.9
2019-Oct-17 16:29N 31°46' W 117°14'4 9.2
2019-Oct-17 16:00N 31°42' W 117°15'5 9.8
2019-Oct-17 15:30N 31°41' W 117°20'5 9.9
2019-Oct-17 15:00N 31°40' W 117°26'5 9.7
2019-Oct-17 14:30N 31°40' W 117°32'5 9.6
2019-Oct-17 14:00N 31°40' W 117°37'5 9.5
2019-Oct-17 13:30N 31°40' W 117°43'5 9.8
2019-Oct-17 13:00N 31°40' W 117°49'5 9.7
2019-Oct-17 12:30N 31°40' W 117°55'5 9.8
2019-Oct-17 12:00N 31°40' W 118°00'5 9.8
2019-Oct-17 11:30N 31°39' W 118°06'5 9.9
2019-Oct-17 11:00N 31°39' W 118°12'5 9.4
2019-Oct-17 10:30N 31°35' W 118°13'5 9.2
2019-Oct-17 10:00N 31°30' W 118°12'5 9.6
2019-Oct-17 09:30N 31°30' W 118°07'510.0
2019-Oct-17 09:00N 31°30' W 118°01'510.0
2019-Oct-17 08:30N 31°30' W 117°55'5 9.7
2019-Oct-17 08:00N 31°30' W 117°49'5 9.7
2019-Oct-17 07:30N 31°30' W 117°43'5 9.6
2019-Oct-17 07:00N 31°30' W 117°38'5 9.4
2019-Oct-17 06:30N 31°30' W 117°32'5 9.4
2019-Oct-17 06:00N 31°30' W 117°27'5 9.6
2019-Oct-17 05:30N 31°30' W 117°21'5 9.6
2019-Oct-17 05:00N 31°30' W 117°15'5 9.6
2019-Oct-17 04:30N 31°30' W 117°10'5 9.6
2019-Oct-17 04:00N 31°30' W 117°04'510.0
2019-Oct-17 03:30N 31°34' W 116°60'810.3
2019-Oct-17 02:42N 31°40' W 116°53'210.1
2019-Oct-17 02:30N 31°41' W 116°52'610.0
2019-Oct-17 01:54N 31°46' W 116°47'5 0.3
2019-Oct-16 12:39N 31°48' W 116°42'211.7
2019-Oct-16 12:30N 31°47' W 116°44'612.3
2019-Oct-16 12:01N 31°45' W 116°51'612.1
2019-Oct-16 11:31N 31°43' W 116°58'611.9
2019-Oct-16 11:00N 31°42' W 117°05'510.8
2019-Oct-16 10:31N 31°38' W 117°09'510.7
2019-Oct-16 10:00N 31°35' W 117°14'510.5
2019-Oct-16 09:30N 31°32' W 117°19'510.2
2019-Oct-16 09:00N 31°29' W 117°24'5 9.8
2019-Oct-16 08:30N 31°27' W 117°29'4 7.8
2019-Oct-16 08:01N 31°27' W 117°34'5 9.0
2019-Oct-16 07:30N 31°31' W 117°36'4 8.9
2019-Oct-16 07:00N 31°35' W 117°39'5 9.0
2019-Oct-16 06:30N 31°39' W 117°41'3 5.8
2019-Oct-16 06:01N 31°41' W 117°44'4 8.6
2019-Oct-16 05:30N 31°37' W 117°43'4 8.7
2019-Oct-16 05:00N 31°32' W 117°43'4 8.6
2019-Oct-16 04:30N 31°28' W 117°41'4 7.1
2019-Oct-16 04:01N 31°31' W 117°38'4 8.8
2019-Oct-16 03:30N 31°35' W 117°39'4 8.6
2019-Oct-16 03:01N 31°39' W 117°40'4 8.6
2019-Oct-16 02:31N 31°44' W 117°40'4 8.6
2019-Oct-16 01:59N 31°48' W 117°41'4 7.6
2019-Oct-16 01:30N 31°49' W 117°37'4 8.2
2019-Oct-16 01:00N 31°48' W 117°32'4 8.0
2019-Oct-16 00:31N 31°47' W 117°27'5 7.8
2019-Oct-15 23:53N 31°46' W 117°22'12 7.8
2019-Oct-15 22:21N 31°58' W 117°19'3 8.0
2019-Oct-15 22:01N 32°00' W 117°21'7414.4
2019-Oct-15 22:00N 31°54' W 117°18'1019.0 300 / 101019.010.8 21.0
2019-Oct-15 21:29N 32°01' W 117°26'4 8.3
2019-Oct-15 21:01N 32°00' W 117°31'4 8.2
2019-Oct-15 20:30N 32°00' W 117°36'4 8.2
2019-Oct-15 20:00N 31°60' W 117°41'4 8.0
2019-Oct-15 19:30N 31°59' W 117°45'4 8.1
2019-Oct-15 19:01N 31°59' W 117°50'4 8.2
2019-Oct-15 18:30N 31°58' W 117°55'4 7.9
2019-Oct-15 18:00N 31°59' W 117°59'4 7.8
2019-Oct-15 17:26N 32°03' W 118°01'4 7.6
2019-Oct-15 16:52N 32°08' W 117°59'3 7.5
2019-Oct-15 16:30N 32°08' W 117°56'4 8.0
2019-Oct-15 16:00N 32°08' W 117°51'4 7.7
2019-Oct-15 15:28N 32°08' W 117°47'4 7.8
2019-Oct-15 15:00N 32°08' W 117°42'4 8.0
2019-Oct-15 14:27N 32°08' W 117°37'4 7.8
2019-Oct-15 13:59N 32°08' W 117°33'4 7.8
2019-Oct-15 13:31N 32°08' W 117°28'4 7.8
2019-Oct-15 12:57N 32°08' W 117°23'3 7.2
2019-Oct-15 12:29N 32°09' W 117°19'4 7.7
2019-Oct-15 12:00N 32°12' W 117°19'4 8.1
2019-Oct-15 11:30N 32°16' W 117°20'4 8.0
2019-Oct-15 11:01N 32°20' W 117°20'4 8.1
2019-Oct-15 10:30N 32°24' W 117°21'4 7.9
2019-Oct-15 10:00N 32°28' W 117°21'4 8.0
2019-Oct-15 09:31N 32°32' W 117°19'4 8.1
2019-Oct-15 09:00N 32°35' W 117°16'4 8.0
2019-Oct-15 08:31N 32°38' W 117°14'5 9.2
2019-Oct-15 08:00N 32°43' W 117°13'2 4.1
2019-Oct-15 07:29N 32°43' W 117°10'0 0.0
2019-Oct-15 06:59N 32°43' W 117°10'0 0.0
2019-Oct-15 06:29N 32°43' W 117°10'0 0.0
2019-Oct-15 05:59N 32°43' W 117°10'0 0.0
2019-Oct-15 05:29N 32°43' W 117°10'0 0.0
2019-Oct-15 04:59N 32°43' W 117°10'0 0.0
2019-Oct-15 04:29N 32°43' W 117°10'0 0.0
2019-Oct-15 03:59N 32°43' W 117°10'0 0.0
2019-Oct-15 03:29N 32°43' W 117°10'0 0.0
2019-Oct-15 02:59N 32°43' W 117°10'0 0.0
2019-Oct-15 02:29N 32°43' W 117°10'0 0.0
2019-Oct-15 01:59N 32°43' W 117°10'0 0.0
2019-Oct-15 01:29N 32°43' W 117°10'0 0.0
2019-Oct-15 00:59N 32°43' W 117°10'0 0.0
2019-Oct-15 00:29N 32°43' W 117°10'0 0.0
2019-Oct-14 23:59N 32°43' W 117°10'0 0.0
2019-Oct-14 23:29N 32°43' W 117°10'0 0.0
2019-Oct-14 22:59N 32°43' W 117°10'0 0.0
2019-Oct-14 22:29N 32°43' W 117°10'0 0.0
2019-Oct-14 21:59N 32°43' W 117°10'0 0.0
2019-Oct-14 21:29N 32°43' W 117°10'0 0.0
2019-Oct-14 20:59N 32°43' W 117°10'0 0.0
2019-Oct-14 20:29N 32°43' W 117°10'0 0.0
2019-Oct-14 19:59N 32°43' W 117°10'0 0.0
2019-Oct-14 19:29N 32°43' W 117°10'0 0.0
2019-Oct-14 18:59N 32°43' W 117°10'0 0.0
2019-Oct-14 18:29N 32°43' W 117°10'0 0.0
2019-Oct-14 17:59N 32°43' W 117°10'0 0.0
2019-Oct-14 17:29N 32°43' W 117°10'0 0.0
2019-Oct-14 16:59N 32°43' W 117°10'0 0.0
2019-Oct-14 16:29N 32°43' W 117°10'0 0.0
2019-Oct-14 15:59N 32°43' W 117°10'0 0.0
2019-Oct-14 15:29N 32°43' W 117°10'0 0.0
2019-Oct-14 14:59N 32°43' W 117°10'0 0.0
2019-Oct-14 14:29N 32°43' W 117°10'0 0.0
2019-Oct-14 14:00N 32°43' W 117°10'2 4.5
2019-Oct-14 13:30N 32°43' W 117°13'510.3
2019-Oct-14 13:00N 32°38' W 117°14'5 9.0
2019-Oct-14 12:30N 32°34' W 117°17'510.7
2019-Oct-14 12:00N 32°36' W 117°23'510.6
2019-Oct-14 11:30N 32°38' W 117°29'510.2
2019-Oct-14 11:00N 32°39' W 117°35'510.2
2019-Oct-14 10:30N 32°39' W 117°41'510.4
2019-Oct-14 10:00N 32°41' W 117°47'6379.3
2019-Oct-14 10:00N 32°36' W 117°42'1122.1 200 / 71017.010.8 17.0
2019-Oct-14 09:30N 32°44' W 117°51'5 9.9
2019-Oct-14 09:00N 32°48' W 117°53'510.2
2019-Oct-14 08:30N 32°53' W 117°54'5 9.2
2019-Oct-14 08:00N 32°57' W 117°57'510.1
2019-Oct-14 07:30N 33°02' W 117°59'510.1
2019-Oct-14 07:00N 33°07' W 118°01'510.0
2019-Oct-14 06:30N 33°11' W 118°03'510.4
2019-Oct-14 06:00N 33°16' W 118°05'510.2
2019-Oct-14 05:30N 33°21' W 118°07'510.3
2019-Oct-14 05:00N 33°26' W 118°09'510.1
2019-Oct-14 04:30N 33°31' W 118°11'510.1
2019-Oct-14 04:00N 33°35' W 118°13'510.3
2019-Oct-14 03:30N 33°40' W 118°14'4 8.2
2019-Oct-14 03:00N 33°44' W 118°17'1 1.6
2019-Oct-14 02:28N 33°45' W 118°17'0 0.0
2019-Oct-14 01:58N 33°45' W 118°17'0 0.0
2019-Oct-14 01:28N 33°45' W 118°17'0 0.0
2019-Oct-14 00:58N 33°45' W 118°17'0 0.0
2019-Oct-14 00:28N 33°45' W 118°17'0 0.0
2019-Oct-13 23:58N 33°45' W 118°17'0 0.0
2019-Oct-13 23:28N 33°45' W 118°17'0 0.0
2019-Oct-13 22:58N 33°45' W 118°17'0 0.0
2019-Oct-13 22:28N 33°45' W 118°17'0 0.0
2019-Oct-13 21:58N 33°45' W 118°17'0 0.0
2019-Oct-13 21:28N 33°45' W 118°17'0 0.0
2019-Oct-13 20:58N 33°45' W 118°17'0 0.0
2019-Oct-13 20:28N 33°45' W 118°17'0 0.0
2019-Oct-13 19:58N 33°45' W 118°17'0 0.0
2019-Oct-13 19:28N 33°45' W 118°17'0 0.0
2019-Oct-13 18:58N 33°45' W 118°17'0 0.0
2019-Oct-13 18:28N 33°45' W 118°17'0 0.0
2019-Oct-13 17:58N 33°45' W 118°17'0 0.0
2019-Oct-13 17:28N 33°45' W 118°17'0 0.0
2019-Oct-13 16:58N 33°45' W 118°17'0 0.0
2019-Oct-13 16:28N 33°45' W 118°17'0 0.0
2019-Oct-13 15:58N 33°45' W 118°17'0 0.0
2019-Oct-13 15:28N 33°45' W 118°17'0 0.0
2019-Oct-13 14:58N 33°45' W 118°17'0 0.0
2019-Oct-13 14:28N 33°45' W 118°17'0 0.0
2019-Oct-13 13:58N 33°45' W 118°17'0 0.4
2019-Oct-13 13:30N 33°45' W 118°16'2 4.6
2019-Oct-13 13:00N 33°43' W 118°15'  

Dump ship's entire track history